sensor_id;sensor_type;location;lat;lon;timestamp;pressure;altitude;pressure_sealevel;temperature;humidity
68871;BME280;55906;52.278;6.808;2024-01-25T00:01:45;102484.78;;;9.68;80.88
68871;BME280;55906;52.278;6.808;2024-01-25T00:04:12;102482.25;;;9.70;80.28
68871;BME280;55906;52.278;6.808;2024-01-25T00:06:40;102494.56;;;9.71;80.81
68871;BME280;55906;52.278;6.808;2024-01-25T00:09:06;102492.75;;;9.70;80.59
68871;BME280;55906;52.278;6.808;2024-01-25T00:11:33;102504.97;;;9.69;80.85
68871;BME280;55906;52.278;6.808;2024-01-25T00:14:00;102492.75;;;9.70;80.48
68871;BME280;55906;52.278;6.808;2024-01-25T00:16:27;102499.97;;;9.74;80.11
68871;BME280;55906;52.278;6.808;2024-01-25T00:18:54;102496.53;;;9.75;80.17
68871;BME280;55906;52.278;6.808;2024-01-25T00:21:20;102503.59;;;9.76;79.23
68871;BME280;55906;52.278;6.808;2024-01-25T00:23:48;102506.56;;;9.82;79.01
68871;BME280;55906;52.278;6.808;2024-01-25T00:26:15;102516.50;;;9.87;78.92
68871;BME280;55906;52.278;6.808;2024-01-25T00:28:42;102508.53;;;9.86;77.88
68871;BME280;55906;52.278;6.808;2024-01-25T00:31:08;102515.94;;;9.93;77.91
68871;BME280;55906;52.278;6.808;2024-01-25T00:33:35;102510.69;;;9.93;77.80
68871;BME280;55906;52.278;6.808;2024-01-25T00:36:02;102516.78;;;9.92;77.56
68871;BME280;55906;52.278;6.808;2024-01-25T00:38:29;102520.38;;;9.94;77.19
68871;BME280;55906;52.278;6.808;2024-01-25T00:40:58;102514.31;;;9.95;77.69
68871;BME280;55906;52.278;6.808;2024-01-25T00:43:26;102530.97;;;9.95;77.26
68871;BME280;55906;52.278;6.808;2024-01-25T00:45:53;102529.91;;;9.92;76.96
68871;BME280;55906;52.278;6.808;2024-01-25T00:48:20;102532.22;;;10.02;76.74
68871;BME280;55906;52.278;6.808;2024-01-25T00:50:47;102535.69;;;10.01;77.05
68871;BME280;55906;52.278;6.808;2024-01-25T00:53:14;102536.00;;;9.91;76.91
68871;BME280;55906;52.278;6.808;2024-01-25T00:55:41;102542.56;;;9.99;76.47
68871;BME280;55906;52.278;6.808;2024-01-25T00:58:10;102538.13;;;9.98;76.77
68871;BME280;55906;52.278;6.808;2024-01-25T01:00:37;102538.88;;;9.95;76.63
68871;BME280;55906;52.278;6.808;2024-01-25T01:03:05;102545.69;;;9.92;76.65
68871;BME280;55906;52.278;6.808;2024-01-25T01:05:32;102550.28;;;9.96;76.72
68871;BME280;55906;52.278;6.808;2024-01-25T01:07:59;102552.00;;;9.95;76.75
68871;BME280;55906;52.278;6.808;2024-01-25T01:10:26;102551.13;;;9.95;76.58
68871;BME280;55906;52.278;6.808;2024-01-25T01:12:52;102553.41;;;9.89;76.75
68871;BME280;55906;52.278;6.808;2024-01-25T01:15:21;102557.91;;;9.91;76.35
68871;BME280;55906;52.278;6.808;2024-01-25T01:17:47;102561.19;;;9.87;76.83
68871;BME280;55906;52.278;6.808;2024-01-25T01:20:14;102562.03;;;9.86;76.51
68871;BME280;55906;52.278;6.808;2024-01-25T01:22:41;102563.81;;;9.87;76.97
68871;BME280;55906;52.278;6.808;2024-01-25T01:25:07;102557.59;;;9.85;76.51
68871;BME280;55906;52.278;6.808;2024-01-25T01:27:35;102560.50;;;9.75;76.84
68871;BME280;55906;52.278;6.808;2024-01-25T01:30:02;102559.19;;;9.67;77.18
68871;BME280;55906;52.278;6.808;2024-01-25T01:32:30;102557.84;;;9.59;77.46
68871;BME280;55906;52.278;6.808;2024-01-25T01:34:57;102561.19;;;9.56;77.78
68871;BME280;55906;52.278;6.808;2024-01-25T01:37:24;102557.22;;;9.48;77.84
68871;BME280;55906;52.278;6.808;2024-01-25T01:39:50;102551.53;;;9.41;78.00
68871;BME280;55906;52.278;6.808;2024-01-25T01:42:17;102560.13;;;9.38;78.14
68871;BME280;55906;52.278;6.808;2024-01-25T01:44:44;102563.31;;;9.33;78.62
68871;BME280;55906;52.278;6.808;2024-01-25T01:47:11;102567.75;;;9.34;78.29
68871;BME280;55906;52.278;6.808;2024-01-25T01:49:39;102563.31;;;9.18;79.44
68871;BME280;55906;52.278;6.808;2024-01-25T01:52:06;102563.16;;;9.15;79.53
68871;BME280;55906;52.278;6.808;2024-01-25T01:54:33;102563.47;;;9.06;79.75
68871;BME280;55906;52.278;6.808;2024-01-25T01:57:00;102570.34;;;9.04;80.04
68871;BME280;55906;52.278;6.808;2024-01-25T01:59:28;102572.53;;;8.96;80.50
68871;BME280;55906;52.278;6.808;2024-01-25T02:01:54;102574.25;;;8.96;80.56
68871;BME280;55906;52.278;6.808;2024-01-25T02:04:21;102573.78;;;8.88;80.67
68871;BME280;55906;52.278;6.808;2024-01-25T02:06:49;102568.34;;;8.85;80.96
68871;BME280;55906;52.278;6.808;2024-01-25T02:09:16;102565.38;;;8.79;81.23
68871;BME280;55906;52.278;6.808;2024-01-25T02:11:43;102574.88;;;8.77;81.28
68871;BME280;55906;52.278;6.808;2024-01-25T02:14:09;102576.66;;;8.78;81.28
68871;BME280;55906;52.278;6.808;2024-01-25T02:16:37;102588.59;;;8.73;81.55
68871;BME280;55906;52.278;6.808;2024-01-25T02:19:04;102570.50;;;8.63;81.68
68871;BME280;55906;52.278;6.808;2024-01-25T02:21:30;102585.50;;;8.65;81.66
68871;BME280;55906;52.278;6.808;2024-01-25T02:23:58;102585.06;;;8.58;82.33
68871;BME280;55906;52.278;6.808;2024-01-25T02:26:25;102588.91;;;8.50;82.75
68871;BME280;55906;52.278;6.808;2024-01-25T02:28:52;102584.19;;;8.44;83.25
68871;BME280;55906;52.278;6.808;2024-01-25T02:31:18;102591.16;;;8.44;83.32
68871;BME280;55906;52.278;6.808;2024-01-25T02:33:45;102596.22;;;8.41;83.15
68871;BME280;55906;52.278;6.808;2024-01-25T02:36:12;102592.88;;;8.43;83.07
68871;BME280;55906;52.278;6.808;2024-01-25T02:38:38;102599.47;;;8.37;83.44
68871;BME280;55906;52.278;6.808;2024-01-25T02:41:06;102601.06;;;8.34;83.78
68871;BME280;55906;52.278;6.808;2024-01-25T02:43:33;102602.78;;;8.34;83.60
68871;BME280;55906;52.278;6.808;2024-01-25T02:46:00;102609.34;;;8.27;83.96
68871;BME280;55906;52.278;6.808;2024-01-25T02:48:26;102608.34;;;8.25;84.14
68871;BME280;55906;52.278;6.808;2024-01-25T02:50:53;102607.94;;;8.19;84.13
68871;BME280;55906;52.278;6.808;2024-01-25T02:53:20;102614.81;;;8.17;84.57
68871;BME280;55906;52.278;6.808;2024-01-25T02:55:46;102613.59;;;8.12;84.46
68871;BME280;55906;52.278;6.808;2024-01-25T02:58:14;102615.31;;;8.12;84.86
68871;BME280;55906;52.278;6.808;2024-01-25T03:00:41;102612.78;;;8.13;84.06
68871;BME280;55906;52.278;6.808;2024-01-25T03:03:08;102611.50;;;8.07;84.52
68871;BME280;55906;52.278;6.808;2024-01-25T03:05:34;102625.94;;;8.00;85.32
68871;BME280;55906;52.278;6.808;2024-01-25T03:08:01;102628.53;;;8.00;85.03
68871;BME280;55906;52.278;6.808;2024-01-25T03:10:27;102636.59;;;8.03;85.05
68871;BME280;55906;52.278;6.808;2024-01-25T03:12:54;102624.63;;;7.93;85.03
68871;BME280;55906;52.278;6.808;2024-01-25T03:15:22;102627.16;;;7.92;85.64
68871;BME280;55906;52.278;6.808;2024-01-25T03:17:49;102627.66;;;7.86;85.84
68871;BME280;55906;52.278;6.808;2024-01-25T03:20:15;102633.59;;;7.84;86.04
68871;BME280;55906;52.278;6.808;2024-01-25T03:22:42;102634.41;;;7.83;85.93
68871;BME280;55906;52.278;6.808;2024-01-25T03:25:10;102633.16;;;7.78;86.42
68871;BME280;55906;52.278;6.808;2024-01-25T03:27:36;102634.56;;;7.72;86.37
68871;BME280;55906;52.278;6.808;2024-01-25T03:30:04;102634.38;;;7.69;86.63
68871;BME280;55906;52.278;6.808;2024-01-25T03:32:33;102635.78;;;7.64;86.71
68871;BME280;55906;52.278;6.808;2024-01-25T03:34:59;102630.34;;;7.61;87.14
68871;BME280;55906;52.278;6.808;2024-01-25T03:37:26;102644.25;;;7.60;86.71
68871;BME280;55906;52.278;6.808;2024-01-25T03:39:52;102645.25;;;7.62;86.81
68871;BME280;55906;52.278;6.808;2024-01-25T03:42:19;102643.13;;;7.57;86.84
68871;BME280;55906;52.278;6.808;2024-01-25T03:44:46;102649.06;;;7.54;87.23
68871;BME280;55906;52.278;6.808;2024-01-25T03:47:13;102640.53;;;7.57;86.80
68871;BME280;55906;52.278;6.808;2024-01-25T03:49:41;102644.44;;;7.50;87.18
68871;BME280;55906;52.278;6.808;2024-01-25T03:52:08;102651.09;;;7.45;87.52
68871;BME280;55906;52.278;6.808;2024-01-25T03:54:34;102649.25;;;7.44;87.64
68871;BME280;55906;52.278;6.808;2024-01-25T03:57:01;102652.69;;;7.43;87.92
68871;BME280;55906;52.278;6.808;2024-01-25T03:59:28;102653.38;;;7.41;87.93
68871;BME280;55906;52.278;6.808;2024-01-25T04:01:54;102660.13;;;7.37;87.68
68871;BME280;55906;52.278;6.808;2024-01-25T04:04:21;102653.09;;;7.36;88.20
68871;BME280;55906;52.278;6.808;2024-01-25T04:06:49;102657.41;;;7.35;87.48
68871;BME280;55906;52.278;6.808;2024-01-25T04:09:15;102670.41;;;7.34;87.45
68871;BME280;55906;52.278;6.808;2024-01-25T04:11:42;102668.38;;;7.30;88.00
68871;BME280;55906;52.278;6.808;2024-01-25T04:14:09;102672.59;;;7.28;87.97
68871;BME280;55906;52.278;6.808;2024-01-25T04:16:35;102663.84;;;7.27;88.80
68871;BME280;55906;52.278;6.808;2024-01-25T04:19:02;102668.66;;;7.21;88.28
68871;BME280;55906;52.278;6.808;2024-01-25T04:21:29;102666.94;;;7.22;88.48
68871;BME280;55906;52.278;6.808;2024-01-25T04:23:57;102671.38;;;7.23;88.10
68871;BME280;55906;52.278;6.808;2024-01-25T04:26:23;102676.63;;;7.23;88.22
68871;BME280;55906;52.278;6.808;2024-01-25T04:28:50;102661.19;;;7.14;89.18
68871;BME280;55906;52.278;6.808;2024-01-25T04:31:17;102668.94;;;7.13;89.51
68871;BME280;55906;52.278;6.808;2024-01-25T04:33:44;102677.59;;;7.12;89.07
68871;BME280;55906;52.278;6.808;2024-01-25T04:36:11;102680.09;;;7.10;89.51
68871;BME280;55906;52.278;6.808;2024-01-25T04:38:38;102689.44;;;7.06;89.13
68871;BME280;55906;52.278;6.808;2024-01-25T04:41:06;102685.13;;;7.07;89.06
68871;BME280;55906;52.278;6.808;2024-01-25T04:43:34;102691.16;;;7.06;89.10
68871;BME280;55906;52.278;6.808;2024-01-25T04:46:01;102682.19;;;7.02;88.90
68871;BME280;55906;52.278;6.808;2024-01-25T04:48:28;102680.38;;;7.01;88.75
68871;BME280;55906;52.278;6.808;2024-01-25T04:50:56;102692.22;;;6.96;90.04
68871;BME280;55906;52.278;6.808;2024-01-25T04:53:22;102687.78;;;6.95;89.99
68871;BME280;55906;52.278;6.808;2024-01-25T04:55:49;102694.84;;;6.96;89.35
68871;BME280;55906;52.278;6.808;2024-01-25T04:58:17;102688.59;;;6.94;90.02
68871;BME280;55906;52.278;6.808;2024-01-25T05:00:43;102684.75;;;6.89;89.16
68871;BME280;55906;52.278;6.808;2024-01-25T05:03:10;102688.88;;;6.86;90.00
68871;BME280;55906;52.278;6.808;2024-01-25T05:05:37;102690.34;;;6.82;90.20
68871;BME280;55906;52.278;6.808;2024-01-25T05:08:04;102679.69;;;6.79;90.02
68871;BME280;55906;52.278;6.808;2024-01-25T05:10:31;102688.91;;;6.74;90.74
68871;BME280;55906;52.278;6.808;2024-01-25T05:12:57;102689.13;;;6.77;90.52
68871;BME280;55906;52.278;6.808;2024-01-25T05:15:25;102688.69;;;6.71;90.19
68871;BME280;55906;52.278;6.808;2024-01-25T05:17:52;102690.28;;;6.69;91.00
68871;BME280;55906;52.278;6.808;2024-01-25T05:20:18;102675.66;;;6.59;91.57
68871;BME280;55906;52.278;6.808;2024-01-25T05:22:45;102681.91;;;6.61;91.13
68871;BME280;55906;52.278;6.808;2024-01-25T05:25:12;102673.25;;;6.62;90.60
68871;BME280;55906;52.278;6.808;2024-01-25T05:27:38;102678.75;;;6.54;91.48
68871;BME280;55906;52.278;6.808;2024-01-25T05:30:06;102683.97;;;6.54;91.45
68871;BME280;55906;52.278;6.808;2024-01-25T05:32:36;102691.81;;;6.54;91.39
68871;BME280;55906;52.278;6.808;2024-01-25T05:35:04;102675.78;;;6.49;91.54
68871;BME280;55906;52.278;6.808;2024-01-25T05:37:31;102688.63;;;6.46;92.27
68871;BME280;55906;52.278;6.808;2024-01-25T05:39:57;102688.28;;;6.41;91.74
68871;BME280;55906;52.278;6.808;2024-01-25T05:42:24;102697.03;;;6.42;91.85
68871;BME280;55906;52.278;6.808;2024-01-25T05:44:51;102691.03;;;6.43;92.01
68871;BME280;55906;52.278;6.808;2024-01-25T05:47:17;102692.03;;;6.45;91.74
68871;BME280;55906;52.278;6.808;2024-01-25T05:49:45;102695.56;;;6.46;91.88
68871;BME280;55906;52.278;6.808;2024-01-25T05:52:13;102696.81;;;6.39;91.88
68871;BME280;55906;52.278;6.808;2024-01-25T05:54:40;102706.25;;;6.37;91.86
68871;BME280;55906;52.278;6.808;2024-01-25T05:57:07;102709.56;;;6.34;92.19
68871;BME280;55906;52.278;6.808;2024-01-25T05:59:33;102716.59;;;6.35;92.14
68871;BME280;55906;52.278;6.808;2024-01-25T06:02:00;102714.78;;;6.34;92.52
68871;BME280;55906;52.278;6.808;2024-01-25T06:04:27;102718.09;;;6.32;92.70
68871;BME280;55906;52.278;6.808;2024-01-25T06:06:55;102715.59;;;6.33;92.63
68871;BME280;55906;52.278;6.808;2024-01-25T06:09:21;102724.00;;;6.29;91.92
68871;BME280;55906;52.278;6.808;2024-01-25T06:11:48;102729.00;;;6.26;93.04
68871;BME280;55906;52.278;6.808;2024-01-25T06:14:14;102724.47;;;6.24;93.51
68871;BME280;55906;52.278;6.808;2024-01-25T06:16:41;102723.34;;;6.20;93.30
68871;BME280;55906;52.278;6.808;2024-01-25T06:19:08;102716.06;;;6.16;93.76
68871;BME280;55906;52.278;6.808;2024-01-25T06:21:35;102712.31;;;6.13;94.12
68871;BME280;55906;52.278;6.808;2024-01-25T06:24:05;102706.28;;;6.14;94.47
68871;BME280;55906;52.278;6.808;2024-01-25T06:26:32;102716.41;;;6.09;94.71
68871;BME280;55906;52.278;6.808;2024-01-25T06:28:58;102729.69;;;6.12;94.40
68871;BME280;55906;52.278;6.808;2024-01-25T06:31:25;102729.47;;;6.09;94.45
68871;BME280;55906;52.278;6.808;2024-01-25T06:33:52;102736.75;;;6.13;95.11
68871;BME280;55906;52.278;6.808;2024-01-25T06:36:19;102739.25;;;6.12;94.39
68871;BME280;55906;52.278;6.808;2024-01-25T06:38:45;102751.16;;;6.08;94.14
68871;BME280;55906;52.278;6.808;2024-01-25T06:41:14;102754.69;;;6.08;94.37
68871;BME280;55906;52.278;6.808;2024-01-25T06:43:44;102745.84;;;6.06;94.42
68871;BME280;55906;52.278;6.808;2024-01-25T06:46:10;102747.66;;;6.07;95.02
68871;BME280;55906;52.278;6.808;2024-01-25T06:48:37;102745.50;;;6.02;94.19
68871;BME280;55906;52.278;6.808;2024-01-25T06:51:04;102757.53;;;6.00;95.25
68871;BME280;55906;52.278;6.808;2024-01-25T06:53:30;102744.00;;;5.94;95.14
68871;BME280;55906;52.278;6.808;2024-01-25T06:55:57;102741.41;;;5.94;95.07
68871;BME280;55906;52.278;6.808;2024-01-25T06:58:25;102748.56;;;5.96;95.07
68871;BME280;55906;52.278;6.808;2024-01-25T07:00:52;102731.75;;;5.93;94.98
68871;BME280;55906;52.278;6.808;2024-01-25T07:03:19;102726.28;;;5.90;94.42
68871;BME280;55906;52.278;6.808;2024-01-25T07:05:45;102735.84;;;5.89;95.43
68871;BME280;55906;52.278;6.808;2024-01-25T07:08:12;102745.59;;;5.92;95.12
68871;BME280;55906;52.278;6.808;2024-01-25T07:10:40;102741.06;;;5.89;95.25
68871;BME280;55906;52.278;6.808;2024-01-25T07:13:07;102739.19;;;5.88;95.84
68871;BME280;55906;52.278;6.808;2024-01-25T07:15:35;102749.22;;;5.94;94.79
68871;BME280;55906;52.278;6.808;2024-01-25T07:18:01;102743.66;;;5.89;95.25
68871;BME280;55906;52.278;6.808;2024-01-25T07:20:28;102747.84;;;5.87;95.71
68871;BME280;55906;52.278;6.808;2024-01-25T07:22:56;102757.75;;;5.91;94.96
68871;BME280;55906;52.278;6.808;2024-01-25T07:25:22;102759.19;;;5.88;95.48
68871;BME280;55906;52.278;6.808;2024-01-25T07:27:50;102759.44;;;5.91;95.80
68871;BME280;55906;52.278;6.808;2024-01-25T07:30:17;102756.56;;;5.88;95.87
68871;BME280;55906;52.278;6.808;2024-01-25T07:32:45;102749.31;;;5.84;96.21
68871;BME280;55906;52.278;6.808;2024-01-25T07:35:12;102752.03;;;5.85;96.79
68871;BME280;55906;52.278;6.808;2024-01-25T07:37:39;102748.88;;;5.89;95.92
68871;BME280;55906;52.278;6.808;2024-01-25T07:40:08;102726.59;;;5.83;96.58
68871;BME280;55906;52.278;6.808;2024-01-25T07:42:34;102745.59;;;5.92;96.32
68871;BME280;55906;52.278;6.808;2024-01-25T07:45:01;102750.47;;;5.99;95.43
68871;BME280;55906;52.278;6.808;2024-01-25T07:47:28;102752.41;;;6.01;96.80
68871;BME280;55906;52.278;6.808;2024-01-25T07:49:56;102757.88;;;6.04;95.92
68871;BME280;55906;52.278;6.808;2024-01-25T07:52:23;102753.56;;;6.05;96.12
68871;BME280;55906;52.278;6.808;2024-01-25T07:54:49;102757.19;;;6.07;96.36
68871;BME280;55906;52.278;6.808;2024-01-25T07:57:18;102765.13;;;6.08;96.42
68871;BME280;55906;52.278;6.808;2024-01-25T07:59:45;102770.13;;;6.17;96.11
68871;BME280;55906;52.278;6.808;2024-01-25T08:02:11;102782.84;;;6.24;95.35
68871;BME280;55906;52.278;6.808;2024-01-25T08:04:38;102777.41;;;6.21;95.78
68871;BME280;55906;52.278;6.808;2024-01-25T08:07:06;102775.38;;;6.29;95.66
68871;BME280;55906;52.278;6.808;2024-01-25T08:09:34;102777.84;;;6.39;95.61
68871;BME280;55906;52.278;6.808;2024-01-25T08:12:00;102780.91;;;6.45;95.23
68871;BME280;55906;52.278;6.808;2024-01-25T08:14:27;102779.22;;;6.46;95.97
68871;BME280;55906;52.278;6.808;2024-01-25T08:16:54;102782.84;;;6.48;95.14
68871;BME280;55906;52.278;6.808;2024-01-25T08:19:21;102779.91;;;6.55;94.30
68871;BME280;55906;52.278;6.808;2024-01-25T08:21:48;102782.88;;;6.59;94.92
68871;BME280;55906;52.278;6.808;2024-01-25T08:24:16;102780.59;;;6.64;94.17
68871;BME280;55906;52.278;6.808;2024-01-25T08:26:43;102780.59;;;6.64;94.57
68871;BME280;55906;52.278;6.808;2024-01-25T08:29:10;102786.72;;;6.64;94.06
68871;BME280;55906;52.278;6.808;2024-01-25T08:31:37;102796.94;;;6.73;94.06
68871;BME280;55906;52.278;6.808;2024-01-25T08:34:04;102796.28;;;6.52;94.33
68871;BME280;55906;52.278;6.808;2024-01-25T08:36:30;102795.59;;;6.55;94.96
68871;BME280;55906;52.278;6.808;2024-01-25T08:38:57;102798.31;;;6.68;94.05
68871;BME280;55906;52.278;6.808;2024-01-25T08:41:25;102804.47;;;6.57;94.33
68871;BME280;55906;52.278;6.808;2024-01-25T08:43:52;102795.91;;;6.71;93.80
68871;BME280;55906;52.278;6.808;2024-01-25T08:46:19;102799.78;;;6.76;93.21
68871;BME280;55906;52.278;6.808;2024-01-25T08:48:45;102801.44;;;6.87;93.55
68871;BME280;55906;52.278;6.808;2024-01-25T08:51:12;102807.63;;;6.76;93.90
68871;BME280;55906;52.278;6.808;2024-01-25T08:53:38;102811.69;;;6.84;92.98
68871;BME280;55906;52.278;6.808;2024-01-25T08:56:06;102819.28;;;6.93;93.55
68871;BME280;55906;52.278;6.808;2024-01-25T08:58:34;102816.25;;;6.75;93.24
68871;BME280;55906;52.278;6.808;2024-01-25T09:01:01;102815.41;;;6.99;93.00
68871;BME280;55906;52.278;6.808;2024-01-25T09:03:27;102815.41;;;6.99;92.21
68871;BME280;55906;52.278;6.808;2024-01-25T09:05:54;102809.53;;;6.90;92.46
68871;BME280;55906;52.278;6.808;2024-01-25T09:08:21;102810.50;;;7.04;92.81
68871;BME280;55906;52.278;6.808;2024-01-25T09:10:47;102806.19;;;7.04;92.40
68871;BME280;55906;52.278;6.808;2024-01-25T09:13:14;102810.94;;;7.10;92.12
68871;BME280;55906;52.278;6.808;2024-01-25T09:15:42;102806.25;;;7.18;91.53
68871;BME280;55906;52.278;6.808;2024-01-25T09:18:11;102811.06;;;7.36;91.52
68871;BME280;55906;52.278;6.808;2024-01-25T09:20:38;102803.75;;;7.44;91.03
68871;BME280;55906;52.278;6.808;2024-01-25T09:23:06;102800.50;;;7.35;91.37
68871;BME280;55906;52.278;6.808;2024-01-25T09:25:33;102806.38;;;7.44;91.07
68871;BME280;55906;52.278;6.808;2024-01-25T09:27:59;102807.00;;;7.53;90.73
68871;BME280;55906;52.278;6.808;2024-01-25T09:30:26;102804.91;;;7.61;89.95
68871;BME280;55906;52.278;6.808;2024-01-25T09:32:55;102803.41;;;7.64;89.90
68871;BME280;55906;52.278;6.808;2024-01-25T09:35:22;102809.03;;;7.82;89.23
68871;BME280;55906;52.278;6.808;2024-01-25T09:37:49;102805.75;;;7.98;88.99
68871;BME280;55906;52.278;6.808;2024-01-25T09:40:17;102794.56;;;8.00;89.02
68871;BME280;55906;52.278;6.808;2024-01-25T09:42:46;102800.50;;;7.98;88.69
68871;BME280;55906;52.278;6.808;2024-01-25T09:45:16;102815.59;;;7.89;88.48
68871;BME280;55906;52.278;6.808;2024-01-25T09:47:43;102801.81;;;8.05;88.64
68871;BME280;55906;52.278;6.808;2024-01-25T09:50:13;102804.97;;;8.25;87.44
68871;BME280;55906;52.278;6.808;2024-01-25T09:52:41;102811.66;;;8.60;86.43
68871;BME280;55906;52.278;6.808;2024-01-25T09:55:11;102804.53;;;8.85;85.70
68871;BME280;55906;52.278;6.808;2024-01-25T09:57:41;102796.97;;;8.90;85.15
68871;BME280;55906;52.278;6.808;2024-01-25T10:00:12;102801.06;;;8.99;84.74
68871;BME280;55906;52.278;6.808;2024-01-25T10:02:39;102803.31;;;8.93;84.96
68871;BME280;55906;52.278;6.808;2024-01-25T10:05:07;102794.50;;;9.06;84.34
68871;BME280;55906;52.278;6.808;2024-01-25T10:07:39;102796.84;;;9.02;83.12
68871;BME280;55906;52.278;6.808;2024-01-25T10:10:07;102814.63;;;9.34;82.90
68871;BME280;55906;52.278;6.808;2024-01-25T10:12:34;102807.00;;;9.66;81.52
68871;BME280;55906;52.278;6.808;2024-01-25T10:15:02;102801.31;;;10.03;80.85
68871;BME280;55906;52.278;6.808;2024-01-25T10:17:29;102795.78;;;9.98;79.55
68871;BME280;55906;52.278;6.808;2024-01-25T10:19:56;102792.72;;;10.20;80.38
68871;BME280;55906;52.278;6.808;2024-01-25T10:22:23;102792.19;;;10.25;80.15
68871;BME280;55906;52.278;6.808;2024-01-25T10:24:51;102792.25;;;9.98;79.17
68871;BME280;55906;52.278;6.808;2024-01-25T10:27:19;102795.88;;;9.85;79.59
68871;BME280;55906;52.278;6.808;2024-01-25T10:29:45;102792.09;;;10.24;78.38
68871;BME280;55906;52.278;6.808;2024-01-25T10:32:12;102785.28;;;10.42;77.83
68871;BME280;55906;52.278;6.808;2024-01-25T10:34:39;102798.38;;;10.72;76.48
68871;BME280;55906;52.278;6.808;2024-01-25T10:37:07;102793.91;;;11.02;75.95
68871;BME280;55906;52.278;6.808;2024-01-25T10:39:34;102782.06;;;11.75;74.34
68871;BME280;55906;52.278;6.808;2024-01-25T10:42:02;102779.44;;;12.27;70.41
68871;BME280;55906;52.278;6.808;2024-01-25T10:44:29;102770.38;;;12.57;70.06
68871;BME280;55906;52.278;6.808;2024-01-25T10:46:56;102764.06;;;12.91;69.00
68871;BME280;55906;52.278;6.808;2024-01-25T10:49:23;102762.03;;;12.85;67.89
68871;BME280;55906;52.278;6.808;2024-01-25T10:51:52;102773.88;;;12.93;67.69
68871;BME280;55906;52.278;6.808;2024-01-25T10:54:19;102746.41;;;12.90;67.82
68871;BME280;55906;52.278;6.808;2024-01-25T10:56:47;102759.84;;;13.31;65.73
68871;BME280;55906;52.278;6.808;2024-01-25T10:59:16;102760.78;;;13.53;65.08
68871;BME280;55906;52.278;6.808;2024-01-25T11:01:44;102744.25;;;13.77;64.88
68871;BME280;55906;52.278;6.808;2024-01-25T11:04:15;102764.41;;;13.95;62.83
68871;BME280;55906;52.278;6.808;2024-01-25T11:06:44;102755.28;;;13.88;63.68
68871;BME280;55906;52.278;6.808;2024-01-25T11:09:16;102763.94;;;13.84;62.78
68871;BME280;55906;52.278;6.808;2024-01-25T11:11:45;102754.81;;;13.57;64.45
68871;BME280;55906;52.278;6.808;2024-01-25T11:14:13;102753.56;;;13.49;65.20
68871;BME280;55906;52.278;6.808;2024-01-25T11:16:43;102755.44;;;12.95;65.07
68871;BME280;55906;52.278;6.808;2024-01-25T11:19:17;102765.16;;;12.76;66.01
68871;BME280;55906;52.278;6.808;2024-01-25T11:21:45;102757.19;;;12.57;65.81
68871;BME280;55906;52.278;6.808;2024-01-25T11:24:13;102758.84;;;12.55;66.36
68871;BME280;55906;52.278;6.808;2024-01-25T11:26:41;102759.03;;;13.14;65.23
68871;BME280;55906;52.278;6.808;2024-01-25T11:29:08;102753.72;;;13.32;64.16
68871;BME280;55906;52.278;6.808;2024-01-25T11:31:35;102754.97;;;13.81;63.15
68871;BME280;55906;52.278;6.808;2024-01-25T11:34:03;102753.94;;;14.19;62.04
68871;BME280;55906;52.278;6.808;2024-01-25T11:36:30;102742.25;;;14.14;61.56
68871;BME280;55906;52.278;6.808;2024-01-25T11:38:57;102735.72;;;14.26;62.45
68871;BME280;55906;52.278;6.808;2024-01-25T11:41:24;102729.38;;;14.42;62.06
68871;BME280;55906;52.278;6.808;2024-01-25T11:43:51;102719.78;;;14.68;60.98
68871;BME280;55906;52.278;6.808;2024-01-25T11:46:17;102697.84;;;15.18;60.40
68871;BME280;55906;52.278;6.808;2024-01-25T11:48:44;102691.50;;;15.38;59.21
68871;BME280;55906;52.278;6.808;2024-01-25T11:51:13;102681.66;;;15.60;57.19
68871;BME280;55906;52.278;6.808;2024-01-25T11:53:40;102674.31;;;15.53;56.46
68871;BME280;55906;52.278;6.808;2024-01-25T11:56:09;102677.56;;;16.22;56.50
68871;BME280;55906;52.278;6.808;2024-01-25T11:58:37;102674.03;;;16.50;53.94
68871;BME280;55906;52.278;6.808;2024-01-25T12:01:05;102668.03;;;16.28;53.83
68871;BME280;55906;52.278;6.808;2024-01-25T12:03:34;102675.41;;;16.37;53.88
68871;BME280;55906;52.278;6.808;2024-01-25T12:06:02;102670.50;;;16.22;55.73
68871;BME280;55906;52.278;6.808;2024-01-25T12:08:31;102653.41;;;15.60;55.58
68871;BME280;55906;52.278;6.808;2024-01-25T12:11:03;102659.78;;;15.65;55.27
68871;BME280;55906;52.278;6.808;2024-01-25T12:13:34;102664.13;;;15.63;55.26
68871;BME280;55906;52.278;6.808;2024-01-25T12:16:02;102664.75;;;15.32;56.33
68871;BME280;55906;52.278;6.808;2024-01-25T12:18:30;102657.31;;;15.22;56.51
68871;BME280;55906;52.278;6.808;2024-01-25T12:20:58;102657.41;;;14.31;57.84
68871;BME280;55906;52.278;6.808;2024-01-25T12:23:31;102658.38;;;13.69;59.72
68871;BME280;55906;52.278;6.808;2024-01-25T12:25:59;102649.41;;;13.66;60.32
68871;BME280;55906;52.278;6.808;2024-01-25T12:28:26;102652.75;;;13.41;61.45
68871;BME280;55906;52.278;6.808;2024-01-25T12:30:53;102643.22;;;13.44;61.86
68871;BME280;55906;52.278;6.808;2024-01-25T12:33:20;102638.63;;;13.40;62.53
68871;BME280;55906;52.278;6.808;2024-01-25T12:35:47;102644.91;;;14.06;61.55
68871;BME280;55906;52.278;6.808;2024-01-25T12:38:15;102652.47;;;14.40;59.44
68871;BME280;55906;52.278;6.808;2024-01-25T12:40:46;102639.06;;;14.58;58.91
68871;BME280;55906;52.278;6.808;2024-01-25T12:43:12;102655.66;;;14.77;58.53
68871;BME280;55906;52.278;6.808;2024-01-25T12:45:40;102647.47;;;14.70;59.14
68871;BME280;55906;52.278;6.808;2024-01-25T12:48:07;102642.25;;;14.96;57.97
68871;BME280;55906;52.278;6.808;2024-01-25T12:50:34;102652.56;;;14.21;59.08
68871;BME280;55906;52.278;6.808;2024-01-25T12:53:01;102660.72;;;14.05;59.96
68871;BME280;55906;52.278;6.808;2024-01-25T12:55:28;102640.22;;;14.89;57.69
68871;BME280;55906;52.278;6.808;2024-01-25T12:57:56;102643.63;;;15.59;55.52